createdAt,value
2019-03-29T00:00:37.129Z,8.38
2019-03-29T00:05:37.135Z,8.38
2019-03-29T00:10:37.128Z,8.38
2019-03-29T00:15:37.142Z,8.38
2019-03-29T00:20:37.149Z,8.38
2019-03-29T00:25:37.143Z,8.38
2019-03-29T00:30:37.137Z,8.38
2019-03-29T00:35:37.129Z,8.38
2019-03-29T00:40:37.182Z,8.38
2019-03-29T00:45:37.131Z,8.44
2019-03-29T00:50:37.148Z,8.44
2019-03-29T00:55:37.170Z,8.44
2019-03-29T01:00:37.150Z,8.44
2019-03-29T01:05:37.147Z,8.38
2019-03-29T01:10:37.153Z,8.38
2019-03-29T01:15:37.163Z,8.38
2019-03-29T01:20:37.172Z,8.38
2019-03-29T01:25:37.192Z,8.44
2019-03-29T01:30:37.172Z,8.38
2019-03-29T01:35:37.180Z,8.38
2019-03-29T01:40:37.164Z,8.38
2019-03-29T01:45:37.173Z,8.38
2019-03-29T01:50:37.180Z,8.31
2019-03-29T01:55:37.169Z,8.25
2019-03-29T02:00:37.212Z,8.25
2019-03-29T02:05:37.181Z,8.25
2019-03-29T02:10:37.171Z,8.25
2019-03-29T02:15:37.880Z,8.25
2019-03-29T02:20:37.207Z,8.19
2019-03-29T02:25:37.259Z,8.19
2019-03-29T02:30:37.262Z,8.19
2019-03-29T02:35:38.376Z,8.19
2019-03-29T02:40:37.244Z,8.19
2019-03-29T02:45:37.231Z,8.13
2019-03-29T02:50:37.255Z,8.13
2019-03-29T02:55:37.246Z,8.06
2019-03-29T03:00:37.260Z,8.06
2019-03-29T03:05:37.246Z,8.13
2019-03-29T03:10:37.253Z,8.13
2019-03-29T03:15:37.248Z,8.13
2019-03-29T03:20:37.257Z,8.19
2019-03-29T03:25:37.290Z,8.25
2019-03-29T03:30:37.285Z,8.25
2019-03-29T03:35:37.220Z,8.25
2019-03-29T03:40:37.232Z,8.25
2019-03-29T03:45:37.426Z,8.25
2019-03-29T03:50:37.269Z,8.25
2019-03-29T03:55:37.285Z,8.25
2019-03-29T04:00:37.270Z,8.25
2019-03-29T04:05:37.280Z,8.19
2019-03-29T04:10:37.286Z,8.19
2019-03-29T04:15:37.271Z,8.19
2019-03-29T04:20:37.294Z,8.19
2019-03-29T04:25:37.245Z,8.19
2019-03-29T04:30:37.293Z,8.13
2019-03-29T04:35:37.309Z,8.13
2019-03-29T04:40:37.284Z,8.06
2019-03-29T04:45:37.251Z,8.06
2019-03-29T04:50:37.254Z,8.06
2019-03-29T04:55:37.296Z,8.06
2019-03-29T05:00:37.299Z,8.06
2019-03-29T05:05:37.263Z,8
2019-03-29T05:10:37.295Z,8.06
2019-03-29T05:15:37.269Z,8
2019-03-29T05:20:37.236Z,8
2019-03-29T05:25:37.271Z,7.94
2019-03-29T05:30:37.315Z,7.94
2019-03-29T05:35:37.273Z,7.94
2019-03-29T05:40:37.284Z,8
2019-03-29T05:45:37.287Z,8.06
2019-03-29T05:50:37.273Z,8.06
2019-03-29T05:55:37.329Z,8.13
2019-03-29T06:00:37.326Z,8.13
2019-03-29T06:05:37.342Z,8.13
2019-03-29T06:10:48.138Z,8.44
2019-03-29T06:15:37.326Z,8.94
2019-03-29T06:20:37.354Z,8.94
2019-03-29T06:25:37.313Z,8.56
2019-03-29T06:30:37.328Z,8.5
2019-03-29T06:35:37.304Z,8.5
2019-03-29T06:40:37.305Z,8.44
2019-03-29T06:45:47.070Z,8.56
2019-03-29T06:50:37.393Z,8.56
2019-03-29T06:55:37.374Z,8.69
2019-03-29T07:00:37.313Z,8.75
2019-03-29T07:05:37.336Z,8.81
2019-03-29T07:10:37.445Z,8.94
2019-03-29T07:15:37.324Z,9
2019-03-29T07:20:37.350Z,9.13
2019-03-29T07:25:37.337Z,9.31
2019-03-29T07:30:37.339Z,9.31
2019-03-29T07:35:37.328Z,9.38
2019-03-29T07:40:37.366Z,9.38
2019-03-29T07:45:37.333Z,9.56
2019-03-29T07:50:37.334Z,9.81
2019-03-29T07:55:37.679Z,9.94
2019-03-29T08:00:37.345Z,10
2019-03-29T08:05:37.348Z,10.06
2019-03-29T08:10:37.372Z,10.25
2019-03-29T08:15:37.362Z,10.31
2019-03-29T08:20:41.888Z,10.5
2019-03-29T08:25:37.337Z,10.5
2019-03-29T08:30:37.356Z,10.56
2019-03-29T08:35:37.372Z,10.56
2019-03-29T08:40:37.544Z,10.69
2019-03-29T08:45:37.344Z,10.94
2019-03-29T08:50:37.386Z,11.06
2019-03-29T08:55:45.394Z,11.13
2019-03-29T09:00:37.377Z,11.19
2019-03-29T09:05:39.093Z,11.31
2019-03-29T09:10:37.383Z,11.44
2019-03-29T09:15:37.362Z,11.5
2019-03-29T09:20:37.382Z,11.75
2019-03-29T09:25:40.241Z,11.81
2019-03-29T09:30:37.382Z,11.88
2019-03-29T09:35:37.385Z,11.94
2019-03-29T09:40:37.412Z,12.06
2019-03-29T09:45:39.662Z,12.13
2019-03-29T09:50:37.476Z,12.25
2019-03-29T09:55:37.402Z,12.19
2019-03-29T10:00:37.405Z,12.25
2019-03-29T10:05:37.381Z,12
2019-03-29T10:10:37.404Z,11.75
2019-03-29T10:15:37.407Z,11.94
2019-03-29T10:20:37.526Z,12.06
2019-03-29T10:25:37.443Z,12.38
2019-03-29T10:30:37.423Z,12.44
2019-03-29T10:35:50.557Z,12.56
2019-03-29T10:40:37.446Z,12.5
2019-03-29T10:45:40.237Z,12.69
2019-03-29T10:50:37.404Z,12.81
2019-03-29T10:55:37.413Z,13.25
2019-03-29T11:00:37.464Z,13.38
2019-03-29T11:05:37.416Z,13.56
2019-03-29T11:10:37.439Z,13.69
2019-03-29T11:15:37.427Z,13.81
2019-03-29T11:20:37.466Z,13.75
2019-03-29T11:25:37.458Z,13.69
2019-03-29T11:30:42.317Z,13.69
2019-03-29T11:35:37.423Z,13.81
2019-03-29T11:40:37.479Z,13.94
2019-03-29T11:45:37.423Z,13.75
2019-03-29T11:50:37.440Z,13.63
2019-03-29T11:55:37.456Z,13.25
2019-03-29T12:00:37.455Z,13
2019-03-29T12:05:37.441Z,13.56
2019-03-29T12:10:37.496Z,13.94
2019-03-29T12:15:37.451Z,14.56
2019-03-29T12:20:37.512Z,15.31
2019-03-29T12:25:37.467Z,15.38
2019-03-29T12:30:37.669Z,14.94
2019-03-29T12:35:37.652Z,14.44
2019-03-29T12:40:37.505Z,14.44
2019-03-29T12:45:37.457Z,14
2019-03-29T12:50:37.468Z,13.63
2019-03-29T12:55:37.532Z,13.63
2019-03-29T13:00:37.502Z,13.56
2019-03-29T13:05:37.488Z,13.38
2019-03-29T13:10:37.481Z,13.25
2019-03-29T13:15:37.477Z,13.25
2019-03-29T13:20:37.480Z,13.31
2019-03-29T13:25:37.470Z,13.44
2019-03-29T13:30:37.487Z,13.13
2019-03-29T13:35:37.490Z,13.25
2019-03-29T13:40:37.492Z,13.38
2019-03-29T13:45:37.512Z,13.19
2019-03-29T13:50:37.577Z,13.13
2019-03-29T13:55:37.502Z,13.06
2019-03-29T14:00:37.520Z,12.88
2019-03-29T14:05:37.501Z,12.81
2019-03-29T14:10:37.502Z,12.81
2019-03-29T14:15:37.562Z,12.81
2019-03-29T14:20:37.509Z,12.88
2019-03-29T14:25:37.516Z,13.06
2019-03-29T14:30:37.527Z,13
2019-03-29T14:35:37.522Z,13
2019-03-29T14:40:37.512Z,13.06
2019-03-29T14:45:37.612Z,13.13
2019-03-29T14:50:37.529Z,13.13
2019-03-29T14:55:37.521Z,13.06
2019-03-29T15:00:37.559Z,13.06
2019-03-29T15:05:37.525Z,13.19
2019-03-29T15:10:37.530Z,13.19
2019-03-29T15:15:37.551Z,13.13
2019-03-29T15:20:37.531Z,13.13
2019-03-29T15:25:40.406Z,13.06
2019-03-29T15:30:37.566Z,13
2019-03-29T15:35:37.653Z,12.94
2019-03-29T15:40:37.587Z,12.94
2019-03-29T15:45:37.541Z,13.06
2019-03-29T15:50:37.546Z,13
2019-03-29T15:55:37.542Z,13
2019-03-29T16:00:37.588Z,12.94
2019-03-29T16:05:37.552Z,12.69
2019-03-29T16:10:37.579Z,12.69
2019-03-29T16:15:38.424Z,12.63
2019-03-29T16:20:37.569Z,12.63
2019-03-29T16:25:37.583Z,12.56
2019-03-29T16:30:37.601Z,12.56
2019-03-29T16:35:37.581Z,12.56
2019-03-29T16:40:37.575Z,12.56
2019-03-29T16:45:47.539Z,12.5
2019-03-29T16:50:37.584Z,12.5
2019-03-29T16:55:37.589Z,12.44
2019-03-29T17:00:37.602Z,12.31
2019-03-29T17:05:37.599Z,12.19
2019-03-29T17:10:37.585Z,12.06
2019-03-29T17:15:37.589Z,12
2019-03-29T17:20:37.607Z,11.94
2019-03-29T17:25:37.601Z,11.81
2019-03-29T17:30:37.660Z,11.75
2019-03-29T17:35:37.615Z,11.75
2019-03-29T17:40:37.611Z,11.63
2019-03-29T17:45:37.648Z,11.44
2019-03-29T17:50:37.633Z,11.38
2019-03-29T17:55:37.614Z,11.25
2019-03-29T18:00:37.627Z,11.13
2019-03-29T18:05:37.622Z,10.88
2019-03-29T18:10:37.635Z,10.81
2019-03-29T18:15:37.633Z,10.69
2019-03-29T18:20:37.633Z,10.63
2019-03-29T18:25:37.643Z,10.25
2019-03-29T18:30:37.656Z,10.13
2019-03-29T18:35:37.645Z,10.06
2019-03-29T18:40:37.666Z,10.06
2019-03-29T18:45:41.337Z,9.94
2019-03-29T18:50:37.644Z,10
2019-03-29T18:55:37.642Z,9.94
2019-03-29T19:00:37.646Z,9.75
2019-03-29T19:05:37.657Z,9.81
2019-03-29T19:10:37.660Z,9.81
2019-03-29T19:15:37.688Z,9.75
2019-03-29T19:20:37.658Z,9.5
2019-03-29T19:25:37.678Z,9.19
2019-03-29T19:30:37.682Z,9.19
2019-03-29T19:35:37.684Z,9.19
2019-03-29T19:40:37.669Z,9.13
2019-03-29T19:45:37.708Z,9.06
2019-03-29T19:50:37.668Z,9
2019-03-29T19:55:37.730Z,8.88
2019-03-29T20:00:37.709Z,8.75
2019-03-29T20:05:37.683Z,8.44
2019-03-29T20:10:37.689Z,8.38
2019-03-29T20:15:37.766Z,8.44
2019-03-29T20:20:37.696Z,8.44
2019-03-29T20:25:37.690Z,8.5
2019-03-29T20:30:37.697Z,8.38
2019-03-29T20:35:37.705Z,8.38
2019-03-29T20:40:37.717Z,8.31
2019-03-29T20:45:37.718Z,8.13
2019-03-29T20:50:37.705Z,8.06
2019-03-29T20:55:37.726Z,8
2019-03-29T21:00:37.743Z,7.94
2019-03-29T21:05:37.720Z,7.75
2019-03-29T21:10:37.727Z,7.69
2019-03-29T21:15:37.753Z,7.63
2019-03-29T21:20:37.723Z,7.5
2019-03-29T21:25:37.724Z,7.38
2019-03-29T21:30:37.730Z,7.31
2019-03-29T21:35:37.739Z,7.31
2019-03-29T21:40:37.748Z,7.44
2019-03-29T21:45:37.745Z,7.5
2019-03-29T21:50:37.753Z,7.38
2019-03-29T21:55:37.756Z,7.19
2019-03-29T22:00:37.758Z,7.06
2019-03-29T22:05:37.762Z,6.75
2019-03-29T22:10:37.760Z,6.63
2019-03-29T22:15:37.793Z,6.63
2019-03-29T22:20:37.844Z,6.56
2019-03-29T22:25:37.774Z,6.56
2019-03-29T22:30:37.795Z,6.44
2019-03-29T22:35:37.762Z,6.44
2019-03-29T22:40:37.829Z,6.5
2019-03-29T22:45:37.800Z,6.44
2019-03-29T22:50:37.780Z,6.31
2019-03-29T22:55:37.788Z,6.13
2019-03-29T23:00:37.782Z,6.06
2019-03-29T23:05:37.777Z,5.88
2019-03-29T23:10:37.785Z,5.81
2019-03-29T23:15:37.823Z,5.75
2019-03-29T23:20:37.794Z,5.88
2019-03-29T23:25:37.790Z,5.88
2019-03-29T23:30:37.809Z,5.94
2019-03-29T23:35:37.795Z,5.88
2019-03-29T23:40:37.808Z,5.75
2019-03-29T23:45:37.864Z,5.75
2019-03-29T23:50:37.809Z,5.69
2019-03-29T23:55:37.815Z,5.63
